sensor_id;sensor_type;location;lat;lon;timestamp;P1;durP1;ratioP1;P2;durP2;ratioP2
4963;SDS011;2497;47.410;9.740;2023-04-25T00:00:32;8.03;;;4.67;;
4963;SDS011;2497;47.410;9.740;2023-04-25T00:02:59;7.20;;;4.20;;
4963;SDS011;2497;47.410;9.740;2023-04-25T00:05:27;7.50;;;4.53;;
4963;SDS011;2497;47.410;9.740;2023-04-25T00:07:55;10.47;;;4.13;;
4963;SDS011;2497;47.410;9.740;2023-04-25T00:10:24;13.30;;;4.13;;
4963;SDS011;2497;47.410;9.740;2023-04-25T00:12:51;7.40;;;4.20;;
4963;SDS011;2497;47.410;9.740;2023-04-25T00:15:18;11.37;;;4.67;;
4963;SDS011;2497;47.410;9.740;2023-04-25T00:17:45;9.23;;;4.83;;
4963;SDS011;2497;47.410;9.740;2023-04-25T00:20:13;7.07;;;4.87;;
4963;SDS011;2497;47.410;9.740;2023-04-25T00:22:40;6.97;;;4.80;;
4963;SDS011;2497;47.410;9.740;2023-04-25T00:25:09;9.93;;;5.00;;
4963;SDS011;2497;47.410;9.740;2023-04-25T00:27:36;9.37;;;5.97;;
4963;SDS011;2497;47.410;9.740;2023-04-25T00:30:04;11.60;;;6.30;;
4963;SDS011;2497;47.410;9.740;2023-04-25T00:32:32;9.80;;;5.47;;
4963;SDS011;2497;47.410;9.740;2023-04-25T00:34:59;8.60;;;6.17;;
4963;SDS011;2497;47.410;9.740;2023-04-25T00:37:26;14.53;;;6.60;;
4963;SDS011;2497;47.410;9.740;2023-04-25T00:39:53;12.40;;;6.43;;
4963;SDS011;2497;47.410;9.740;2023-04-25T00:42:22;8.40;;;5.60;;
4963;SDS011;2497;47.410;9.740;2023-04-25T00:44:50;12.47;;;5.77;;
4963;SDS011;2497;47.410;9.740;2023-04-25T00:47:18;12.23;;;5.50;;
4963;SDS011;2497;47.410;9.740;2023-04-25T00:49:46;7.60;;;5.57;;
4963;SDS011;2497;47.410;9.740;2023-04-25T00:52:13;11.63;;;5.93;;
4963;SDS011;2497;47.410;9.740;2023-04-25T00:54:40;12.37;;;6.07;;
4963;SDS011;2497;47.410;9.740;2023-04-25T00:57:07;9.07;;;5.53;;
4963;SDS011;2497;47.410;9.740;2023-04-25T00:59:37;7.40;;;4.93;;
4963;SDS011;2497;47.410;9.740;2023-04-25T01:02:07;9.67;;;4.63;;
4963;SDS011;2497;47.410;9.740;2023-04-25T01:04:35;6.70;;;4.20;;
4963;SDS011;2497;47.410;9.740;2023-04-25T01:07:03;9.10;;;4.83;;
4963;SDS011;2497;47.410;9.740;2023-04-25T01:09:30;7.00;;;4.03;;
4963;SDS011;2497;47.410;9.740;2023-04-25T01:11:57;7.53;;;4.50;;
4963;SDS011;2497;47.410;9.740;2023-04-25T01:14:25;9.40;;;5.33;;
4963;SDS011;2497;47.410;9.740;2023-04-25T01:16:53;5.37;;;3.63;;
4963;SDS011;2497;47.410;9.740;2023-04-25T01:19:20;6.77;;;4.40;;
4963;SDS011;2497;47.410;9.740;2023-04-25T01:21:49;7.10;;;3.93;;
4963;SDS011;2497;47.410;9.740;2023-04-25T01:24:17;10.43;;;4.00;;
4963;SDS011;2497;47.410;9.740;2023-04-25T01:26:44;4.90;;;3.40;;
4963;SDS011;2497;47.410;9.740;2023-04-25T01:29:19;5.50;;;3.27;;
4963;SDS011;2497;47.410;9.740;2023-04-25T01:31:47;6.67;;;3.87;;
4963;SDS011;2497;47.410;9.740;2023-04-25T01:34:14;8.47;;;4.00;;
4963;SDS011;2497;47.410;9.740;2023-04-25T01:36:41;9.07;;;3.97;;
4963;SDS011;2497;47.410;9.740;2023-04-25T01:39:10;5.53;;;3.77;;
4963;SDS011;2497;47.410;9.740;2023-04-25T01:41:37;7.00;;;3.80;;
4963;SDS011;2497;47.410;9.740;2023-04-25T01:44:05;6.37;;;3.53;;
4963;SDS011;2497;47.410;9.740;2023-04-25T01:46:32;5.10;;;3.30;;
4963;SDS011;2497;47.410;9.740;2023-04-25T01:48:59;6.80;;;3.87;;
4963;SDS011;2497;47.410;9.740;2023-04-25T01:51:27;11.97;;;4.07;;
4963;SDS011;2497;47.410;9.740;2023-04-25T01:53:55;8.90;;;3.83;;
4963;SDS011;2497;47.410;9.740;2023-04-25T01:56:24;5.20;;;3.27;;
4963;SDS011;2497;47.410;9.740;2023-04-25T01:58:54;4.80;;;3.03;;
4963;SDS011;2497;47.410;9.740;2023-04-25T02:01:21;8.67;;;4.13;;
4963;SDS011;2497;47.410;9.740;2023-04-25T02:03:48;5.33;;;3.90;;
4963;SDS011;2497;47.410;9.740;2023-04-25T02:06:15;9.07;;;3.57;;
4963;SDS011;2497;47.410;9.740;2023-04-25T02:08:42;8.53;;;4.57;;
4963;SDS011;2497;47.410;9.740;2023-04-25T02:11:09;6.20;;;3.63;;
4963;SDS011;2497;47.410;9.740;2023-04-25T02:13:38;13.47;;;5.20;;
4963;SDS011;2497;47.410;9.740;2023-04-25T02:16:05;9.40;;;4.90;;
4963;SDS011;2497;47.410;9.740;2023-04-25T02:18:32;11.53;;;5.43;;
4963;SDS011;2497;47.410;9.740;2023-04-25T02:21:02;10.17;;;5.93;;
4963;SDS011;2497;47.410;9.740;2023-04-25T02:23:29;11.17;;;5.40;;
4963;SDS011;2497;47.410;9.740;2023-04-25T02:25:56;14.27;;;5.67;;
4963;SDS011;2497;47.410;9.740;2023-04-25T02:28:24;13.27;;;5.90;;
4963;SDS011;2497;47.410;9.740;2023-04-25T02:30:54;9.53;;;5.50;;
4963;SDS011;2497;47.410;9.740;2023-04-25T02:33:21;11.40;;;6.03;;
4963;SDS011;2497;47.410;9.740;2023-04-25T02:35:48;5.87;;;3.60;;
4963;SDS011;2497;47.410;9.740;2023-04-25T02:38:15;6.90;;;4.60;;
4963;SDS011;2497;47.410;9.740;2023-04-25T02:40:42;14.73;;;4.03;;
4963;SDS011;2497;47.410;9.740;2023-04-25T02:43:09;6.57;;;3.60;;
4963;SDS011;2497;47.410;9.740;2023-04-25T02:45:39;5.20;;;3.40;;
4963;SDS011;2497;47.410;9.740;2023-04-25T02:48:07;6.90;;;3.13;;
4963;SDS011;2497;47.410;9.740;2023-04-25T02:50:35;9.07;;;3.20;;
4963;SDS011;2497;47.410;9.740;2023-04-25T02:53:02;8.03;;;3.70;;
4963;SDS011;2497;47.410;9.740;2023-04-25T02:55:29;4.80;;;3.20;;
4963;SDS011;2497;47.410;9.740;2023-04-25T02:57:56;20.87;;;4.93;;
4963;SDS011;2497;47.410;9.740;2023-04-25T03:00:23;4.57;;;3.10;;
4963;SDS011;2497;47.410;9.740;2023-04-25T03:02:51;5.83;;;3.03;;
4963;SDS011;2497;47.410;9.740;2023-04-25T03:05:19;3.80;;;3.13;;
4963;SDS011;2497;47.410;9.740;2023-04-25T03:07:46;7.37;;;3.60;;
4963;SDS011;2497;47.410;9.740;2023-04-25T03:10:13;5.03;;;3.53;;
4963;SDS011;2497;47.410;9.740;2023-04-25T03:12:40;6.53;;;3.43;;
4963;SDS011;2497;47.410;9.740;2023-04-25T03:15:08;6.90;;;3.70;;
4963;SDS011;2497;47.410;9.740;2023-04-25T03:17:35;6.23;;;3.60;;
4963;SDS011;2497;47.410;9.740;2023-04-25T03:20:03;5.43;;;3.30;;
4963;SDS011;2497;47.410;9.740;2023-04-25T03:22:34;7.40;;;3.53;;
4963;SDS011;2497;47.410;9.740;2023-04-25T03:25:01;11.20;;;2.90;;
4963;SDS011;2497;47.410;9.740;2023-04-25T03:27:32;6.73;;;3.70;;
4963;SDS011;2497;47.410;9.740;2023-04-25T03:30:00;7.80;;;3.20;;
4963;SDS011;2497;47.410;9.740;2023-04-25T03:32:27;7.93;;;3.67;;
4963;SDS011;2497;47.410;9.740;2023-04-25T03:34:55;8.30;;;3.27;;
4963;SDS011;2497;47.410;9.740;2023-04-25T03:37:22;17.33;;;3.90;;
4963;SDS011;2497;47.410;9.740;2023-04-25T03:39:50;8.77;;;4.00;;
4963;SDS011;2497;47.410;9.740;2023-04-25T03:42:17;7.93;;;3.10;;
4963;SDS011;2497;47.410;9.740;2023-04-25T03:44:44;4.57;;;2.50;;
4963;SDS011;2497;47.410;9.740;2023-04-25T03:47:11;10.73;;;2.70;;
4963;SDS011;2497;47.410;9.740;2023-04-25T03:49:39;14.40;;;3.17;;
4963;SDS011;2497;47.410;9.740;2023-04-25T03:52:09;5.17;;;2.77;;
4963;SDS011;2497;47.410;9.740;2023-04-25T03:54:36;8.87;;;3.07;;
4963;SDS011;2497;47.410;9.740;2023-04-25T03:57:05;12.00;;;2.53;;
4963;SDS011;2497;47.410;9.740;2023-04-25T03:59:32;7.50;;;3.27;;
4963;SDS011;2497;47.410;9.740;2023-04-25T04:01:59;5.77;;;3.00;;
4963;SDS011;2497;47.410;9.740;2023-04-25T04:04:26;7.57;;;3.73;;
4963;SDS011;2497;47.410;9.740;2023-04-25T04:06:53;5.87;;;2.83;;
4963;SDS011;2497;47.410;9.740;2023-04-25T04:09:20;7.03;;;3.07;;
4963;SDS011;2497;47.410;9.740;2023-04-25T04:11:48;7.67;;;3.20;;
4963;SDS011;2497;47.410;9.740;2023-04-25T04:14:16;3.10;;;2.50;;
4963;SDS011;2497;47.410;9.740;2023-04-25T04:16:43;6.87;;;2.90;;
4963;SDS011;2497;47.410;9.740;2023-04-25T04:19:11;3.60;;;2.63;;
4963;SDS011;2497;47.410;9.740;2023-04-25T04:21:38;5.77;;;3.10;;
4963;SDS011;2497;47.410;9.740;2023-04-25T04:24:07;11.00;;;2.97;;
4963;SDS011;2497;47.410;9.740;2023-04-25T04:26:35;8.67;;;3.40;;
4963;SDS011;2497;47.410;9.740;2023-04-25T04:29:03;7.00;;;3.07;;
4963;SDS011;2497;47.410;9.740;2023-04-25T04:31:35;6.53;;;3.00;;
4963;SDS011;2497;47.410;9.740;2023-04-25T04:34:02;8.00;;;3.13;;
4963;SDS011;2497;47.410;9.740;2023-04-25T04:36:29;3.17;;;2.30;;
4963;SDS011;2497;47.410;9.740;2023-04-25T04:39:05;4.30;;;2.77;;
4963;SDS011;2497;47.410;9.740;2023-04-25T04:41:41;5.07;;;2.60;;
4963;SDS011;2497;47.410;9.740;2023-04-25T04:44:14;3.60;;;2.77;;
4963;SDS011;2497;47.410;9.740;2023-04-25T04:46:46;5.33;;;2.70;;
4963;SDS011;2497;47.410;9.740;2023-04-25T04:49:14;4.90;;;3.00;;
4963;SDS011;2497;47.410;9.740;2023-04-25T04:51:42;4.23;;;3.03;;
4963;SDS011;2497;47.410;9.740;2023-04-25T04:54:27;4.67;;;3.00;;
4963;SDS011;2497;47.410;9.740;2023-04-25T04:56:55;4.33;;;2.40;;
4963;SDS011;2497;47.410;9.740;2023-04-25T04:59:22;7.00;;;2.60;;
4963;SDS011;2497;47.410;9.740;2023-04-25T05:01:52;5.30;;;3.00;;
4963;SDS011;2497;47.410;9.740;2023-04-25T05:04:19;5.60;;;2.33;;
4963;SDS011;2497;47.410;9.740;2023-04-25T05:06:49;4.53;;;2.30;;
4963;SDS011;2497;47.410;9.740;2023-04-25T05:09:16;6.47;;;2.50;;
4963;SDS011;2497;47.410;9.740;2023-04-25T05:11:44;7.63;;;3.13;;
4963;SDS011;2497;47.410;9.740;2023-04-25T05:16:47;7.23;;;2.70;;
4963;SDS011;2497;47.410;9.740;2023-04-25T05:19:16;11.23;;;3.03;;
4963;SDS011;2497;47.410;9.740;2023-04-25T05:21:43;11.40;;;3.20;;
4963;SDS011;2497;47.410;9.740;2023-04-25T05:24:10;7.50;;;2.73;;
4963;SDS011;2497;47.410;9.740;2023-04-25T05:26:37;6.40;;;2.73;;
4963;SDS011;2497;47.410;9.740;2023-04-25T05:29:05;8.73;;;3.63;;
4963;SDS011;2497;47.410;9.740;2023-04-25T05:31:32;7.63;;;3.20;;
4963;SDS011;2497;47.410;9.740;2023-04-25T05:34:01;8.87;;;3.20;;
4963;SDS011;2497;47.410;9.740;2023-04-25T05:36:30;7.30;;;2.80;;
4963;SDS011;2497;47.410;9.740;2023-04-25T05:39:05;9.37;;;3.00;;
4963;SDS011;2497;47.410;9.740;2023-04-25T05:41:37;4.60;;;2.30;;
4963;SDS011;2497;47.410;9.740;2023-04-25T05:44:09;4.70;;;3.00;;
4963;SDS011;2497;47.410;9.740;2023-04-25T05:46:36;3.80;;;2.63;;
4963;SDS011;2497;47.410;9.740;2023-04-25T05:49:03;6.13;;;3.67;;
4963;SDS011;2497;47.410;9.740;2023-04-25T05:51:33;4.13;;;2.40;;
4963;SDS011;2497;47.410;9.740;2023-04-25T05:54:00;8.53;;;3.43;;
4963;SDS011;2497;47.410;9.740;2023-04-25T05:56:27;5.40;;;3.37;;
4963;SDS011;2497;47.410;9.740;2023-04-25T05:58:55;9.17;;;3.10;;
4963;SDS011;2497;47.410;9.740;2023-04-25T06:01:22;5.47;;;3.50;;
4963;SDS011;2497;47.410;9.740;2023-04-25T06:03:49;4.83;;;2.93;;
4963;SDS011;2497;47.410;9.740;2023-04-25T06:06:17;3.10;;;2.80;;
4963;SDS011;2497;47.410;9.740;2023-04-25T06:08:49;5.40;;;2.90;;
4963;SDS011;2497;47.410;9.740;2023-04-25T06:11:16;7.43;;;2.77;;
4963;SDS011;2497;47.410;9.740;2023-04-25T06:13:43;5.07;;;2.93;;
4963;SDS011;2497;47.410;9.740;2023-04-25T06:16:12;16.80;;;3.23;;
4963;SDS011;2497;47.410;9.740;2023-04-25T06:18:40;11.27;;;3.60;;
4963;SDS011;2497;47.410;9.740;2023-04-25T06:21:07;12.70;;;3.33;;
4963;SDS011;2497;47.410;9.740;2023-04-25T06:23:36;8.20;;;2.73;;
4963;SDS011;2497;47.410;9.740;2023-04-25T06:26:05;4.37;;;2.33;;
4963;SDS011;2497;47.410;9.740;2023-04-25T06:28:32;6.80;;;2.93;;
4963;SDS011;2497;47.410;9.740;2023-04-25T06:31:03;6.90;;;3.43;;
4963;SDS011;2497;47.410;9.740;2023-04-25T06:33:30;13.90;;;4.80;;
4963;SDS011;2497;47.410;9.740;2023-04-25T06:36:05;9.30;;;4.10;;
4963;SDS011;2497;47.410;9.740;2023-04-25T06:38:33;10.07;;;4.90;;
4963;SDS011;2497;47.410;9.740;2023-04-25T06:41:09;4.77;;;3.83;;
4963;SDS011;2497;47.410;9.740;2023-04-25T06:43:36;7.33;;;4.63;;
4963;SDS011;2497;47.410;9.740;2023-04-25T06:46:04;12.03;;;4.30;;
4963;SDS011;2497;47.410;9.740;2023-04-25T06:48:31;9.10;;;4.93;;
4963;SDS011;2497;47.410;9.740;2023-04-25T06:50:58;8.47;;;4.13;;
4963;SDS011;2497;47.410;9.740;2023-04-25T06:53:29;6.80;;;4.47;;
4963;SDS011;2497;47.410;9.740;2023-04-25T06:55:56;6.10;;;4.70;;
4963;SDS011;2497;47.410;9.740;2023-04-25T06:58:27;7.70;;;4.63;;
4963;SDS011;2497;47.410;9.740;2023-04-25T07:00:57;8.57;;;4.17;;
4963;SDS011;2497;47.410;9.740;2023-04-25T07:03:24;9.80;;;3.63;;
4963;SDS011;2497;47.410;9.740;2023-04-25T07:05:52;12.03;;;4.70;;
4963;SDS011;2497;47.410;9.740;2023-04-25T07:08:19;7.23;;;3.30;;
4963;SDS011;2497;47.410;9.740;2023-04-25T07:10:49;7.97;;;3.60;;
4963;SDS011;2497;47.410;9.740;2023-04-25T07:13:16;10.63;;;3.47;;
4963;SDS011;2497;47.410;9.740;2023-04-25T07:15:45;11.90;;;4.70;;
4963;SDS011;2497;47.410;9.740;2023-04-25T07:18:13;12.07;;;3.60;;
4963;SDS011;2497;47.410;9.740;2023-04-25T07:20:41;5.47;;;3.37;;
4963;SDS011;2497;47.410;9.740;2023-04-25T07:23:08;8.57;;;3.63;;
4963;SDS011;2497;47.410;9.740;2023-04-25T07:25:35;9.60;;;3.70;;
4963;SDS011;2497;47.410;9.740;2023-04-25T07:28:03;6.70;;;2.60;;
4963;SDS011;2497;47.410;9.740;2023-04-25T07:30:30;6.07;;;2.97;;
4963;SDS011;2497;47.410;9.740;2023-04-25T07:33:04;4.43;;;2.80;;
4963;SDS011;2497;47.410;9.740;2023-04-25T07:35:31;3.90;;;2.80;;
4963;SDS011;2497;47.410;9.740;2023-04-25T07:37:58;8.47;;;3.37;;
4963;SDS011;2497;47.410;9.740;2023-04-25T07:40:26;5.57;;;3.23;;
4963;SDS011;2497;47.410;9.740;2023-04-25T07:42:53;6.07;;;2.63;;
4963;SDS011;2497;47.410;9.740;2023-04-25T07:45:20;9.77;;;2.87;;
4963;SDS011;2497;47.410;9.740;2023-04-25T07:47:48;13.43;;;2.80;;
4963;SDS011;2497;47.410;9.740;2023-04-25T07:50:18;3.40;;;2.20;;
4963;SDS011;2497;47.410;9.740;2023-04-25T07:52:45;5.23;;;2.47;;
4963;SDS011;2497;47.410;9.740;2023-04-25T07:55:12;8.30;;;2.30;;
4963;SDS011;2497;47.410;9.740;2023-04-25T07:57:39;4.53;;;2.40;;
4963;SDS011;2497;47.410;9.740;2023-04-25T08:00:07;4.03;;;2.67;;
4963;SDS011;2497;47.410;9.740;2023-04-25T08:02:37;3.77;;;2.27;;
4963;SDS011;2497;47.410;9.740;2023-04-25T08:05:05;5.07;;;3.17;;
4963;SDS011;2497;47.410;9.740;2023-04-25T08:07:38;5.57;;;2.77;;
4963;SDS011;2497;47.410;9.740;2023-04-25T08:10:13;9.40;;;2.43;;
4963;SDS011;2497;47.410;9.740;2023-04-25T08:12:40;3.40;;;2.67;;
4963;SDS011;2497;47.410;9.740;2023-04-25T08:15:08;4.30;;;2.50;;
4963;SDS011;2497;47.410;9.740;2023-04-25T08:17:35;2.67;;;2.17;;
4963;SDS011;2497;47.410;9.740;2023-04-25T08:20:02;6.37;;;2.60;;
4963;SDS011;2497;47.410;9.740;2023-04-25T08:22:35;5.43;;;2.60;;
4963;SDS011;2497;47.410;9.740;2023-04-25T08:25:08;7.53;;;3.20;;
4963;SDS011;2497;47.410;9.740;2023-04-25T08:27:36;5.00;;;2.67;;
4963;SDS011;2497;47.410;9.740;2023-04-25T08:30:03;5.47;;;3.03;;
4963;SDS011;2497;47.410;9.740;2023-04-25T08:32:34;2.37;;;2.13;;
4963;SDS011;2497;47.410;9.740;2023-04-25T08:35:09;5.53;;;2.60;;
4963;SDS011;2497;47.410;9.740;2023-04-25T08:37:36;2.93;;;2.63;;
4963;SDS011;2497;47.410;9.740;2023-04-25T08:40:11;7.73;;;3.00;;
4963;SDS011;2497;47.410;9.740;2023-04-25T08:42:57;3.37;;;2.30;;
4963;SDS011;2497;47.410;9.740;2023-04-25T08:45:40;6.90;;;2.70;;
4963;SDS011;2497;47.410;9.740;2023-04-25T08:48:10;4.97;;;2.97;;
4963;SDS011;2497;47.410;9.740;2023-04-25T08:50:43;17.90;;;3.17;;
4963;SDS011;2497;47.410;9.740;2023-04-25T08:53:16;5.77;;;2.97;;
4963;SDS011;2497;47.410;9.740;2023-04-25T08:55:47;7.07;;;3.40;;
4963;SDS011;2497;47.410;9.740;2023-04-25T08:58:18;9.70;;;3.70;;
4963;SDS011;2497;47.410;9.740;2023-04-25T09:00:47;10.20;;;4.60;;
4963;SDS011;2497;47.410;9.740;2023-04-25T09:03:18;9.60;;;4.43;;
4963;SDS011;2497;47.410;9.740;2023-04-25T09:06:13;9.30;;;4.03;;
4963;SDS011;2497;47.410;9.740;2023-04-25T09:08:41;5.83;;;3.10;;
4963;SDS011;2497;47.410;9.740;2023-04-25T09:11:08;12.30;;;3.67;;
4963;SDS011;2497;47.410;9.740;2023-04-25T09:13:37;5.80;;;3.47;;
4963;SDS011;2497;47.410;9.740;2023-04-25T09:16:05;7.70;;;3.53;;
4963;SDS011;2497;47.410;9.740;2023-04-25T09:18:35;9.20;;;3.90;;
4963;SDS011;2497;47.410;9.740;2023-04-25T09:21:05;8.90;;;2.90;;
4963;SDS011;2497;47.410;9.740;2023-04-25T09:23:38;6.00;;;3.03;;
4963;SDS011;2497;47.410;9.740;2023-04-25T09:26:06;7.20;;;3.07;;
4963;SDS011;2497;47.410;9.740;2023-04-25T09:28:38;4.57;;;3.60;;
4963;SDS011;2497;47.410;9.740;2023-04-25T09:31:05;6.93;;;3.33;;
4963;SDS011;2497;47.410;9.740;2023-04-25T09:33:35;8.50;;;3.77;;
4963;SDS011;2497;47.410;9.740;2023-04-25T09:36:12;5.20;;;3.77;;
4963;SDS011;2497;47.410;9.740;2023-04-25T09:38:43;4.30;;;3.20;;
4963;SDS011;2497;47.410;9.740;2023-04-25T09:41:11;9.40;;;3.07;;
4963;SDS011;2497;47.410;9.740;2023-04-25T09:43:40;9.33;;;3.13;;
4963;SDS011;2497;47.410;9.740;2023-04-25T09:46:32;7.90;;;2.93;;
4963;SDS011;2497;47.410;9.740;2023-04-25T09:49:05;6.87;;;3.70;;
4963;SDS011;2497;47.410;9.740;2023-04-25T09:51:36;6.90;;;3.80;;
4963;SDS011;2497;47.410;9.740;2023-04-25T09:54:04;15.10;;;6.60;;
4963;SDS011;2497;47.410;9.740;2023-04-25T09:56:31;9.40;;;3.80;;
4963;SDS011;2497;47.410;9.740;2023-04-25T09:59:08;5.60;;;3.10;;
4963;SDS011;2497;47.410;9.740;2023-04-25T10:01:36;4.03;;;2.93;;
4963;SDS011;2497;47.410;9.740;2023-04-25T10:04:06;6.63;;;2.70;;
4963;SDS011;2497;47.410;9.740;2023-04-25T10:06:37;3.83;;;2.37;;
4963;SDS011;2497;47.410;9.740;2023-04-25T10:09:08;6.57;;;2.80;;
4963;SDS011;2497;47.410;9.740;2023-04-25T10:11:35;3.00;;;1.67;;
4963;SDS011;2497;47.410;9.740;2023-04-25T10:14:06;8.67;;;2.80;;
4963;SDS011;2497;47.410;9.740;2023-04-25T10:16:34;4.33;;;2.53;;
4963;SDS011;2497;47.410;9.740;2023-04-25T10:19:02;8.00;;;2.77;;
4963;SDS011;2497;47.410;9.740;2023-04-25T10:21:29;2.90;;;2.00;;
4963;SDS011;2497;47.410;9.740;2023-04-25T10:24:00;4.27;;;2.00;;
4963;SDS011;2497;47.410;9.740;2023-04-25T10:26:28;3.40;;;1.87;;
4963;SDS011;2497;47.410;9.740;2023-04-25T10:28:56;2.63;;;1.83;;
4963;SDS011;2497;47.410;9.740;2023-04-25T10:31:26;3.70;;;1.87;;
4963;SDS011;2497;47.410;9.740;2023-04-25T10:33:53;2.97;;;1.97;;
4963;SDS011;2497;47.410;9.740;2023-04-25T10:36:23;2.90;;;1.73;;
4963;SDS011;2497;47.410;9.740;2023-04-25T10:38:52;3.13;;;1.77;;
4963;SDS011;2497;47.410;9.740;2023-04-25T10:41:20;4.33;;;2.30;;
4963;SDS011;2497;47.410;9.740;2023-04-25T10:43:48;3.63;;;1.90;;
4963;SDS011;2497;47.410;9.740;2023-04-25T10:46:17;2.70;;;1.53;;
4963;SDS011;2497;47.410;9.740;2023-04-25T10:48:47;2.27;;;1.50;;
4963;SDS011;2497;47.410;9.740;2023-04-25T10:51:16;2.80;;;1.33;;
4963;SDS011;2497;47.410;9.740;2023-04-25T10:53:45;1.40;;;1.30;;
4963;SDS011;2497;47.410;9.740;2023-04-25T10:56:16;3.50;;;1.87;;
4963;SDS011;2497;47.410;9.740;2023-04-25T10:58:45;6.30;;;2.43;;
4963;SDS011;2497;47.410;9.740;2023-04-25T11:01:13;4.10;;;2.17;;
4963;SDS011;2497;47.410;9.740;2023-04-25T11:03:42;5.57;;;4.17;;
4963;SDS011;2497;47.410;9.740;2023-04-25T11:06:15;5.43;;;2.10;;
4963;SDS011;2497;47.410;9.740;2023-04-25T11:08:49;9.43;;;2.70;;
4963;SDS011;2497;47.410;9.740;2023-04-25T11:11:17;3.33;;;2.70;;
4963;SDS011;2497;47.410;9.740;2023-04-25T11:13:47;6.27;;;2.40;;
4963;SDS011;2497;47.410;9.740;2023-04-25T11:16:14;8.87;;;2.47;;
4963;SDS011;2497;47.410;9.740;2023-04-25T11:18:41;5.33;;;3.00;;
4963;SDS011;2497;47.410;9.740;2023-04-25T11:21:09;4.63;;;3.20;;
4963;SDS011;2497;47.410;9.740;2023-04-25T11:23:37;4.33;;;2.87;;
4963;SDS011;2497;47.410;9.740;2023-04-25T11:26:05;4.03;;;2.50;;
4963;SDS011;2497;47.410;9.740;2023-04-25T11:28:32;4.57;;;2.77;;
4963;SDS011;2497;47.410;9.740;2023-04-25T11:30:59;2.97;;;2.27;;
4963;SDS011;2497;47.410;9.740;2023-04-25T11:33:28;2.73;;;2.10;;
4963;SDS011;2497;47.410;9.740;2023-04-25T11:35:56;4.10;;;2.70;;
4963;SDS011;2497;47.410;9.740;2023-04-25T11:38:29;3.33;;;2.23;;
4963;SDS011;2497;47.410;9.740;2023-04-25T11:40:57;3.20;;;2.07;;
4963;SDS011;2497;47.410;9.740;2023-04-25T11:43:28;2.20;;;1.80;;
4963;SDS011;2497;47.410;9.740;2023-04-25T11:45:55;2.60;;;1.83;;
4963;SDS011;2497;47.410;9.740;2023-04-25T11:48:25;3.27;;;2.27;;
4963;SDS011;2497;47.410;9.740;2023-04-25T11:50:53;3.53;;;2.00;;
4963;SDS011;2497;47.410;9.740;2023-04-25T11:53:22;3.93;;;2.70;;
4963;SDS011;2497;47.410;9.740;2023-04-25T11:55:55;5.60;;;2.43;;
4963;SDS011;2497;47.410;9.740;2023-04-25T12:01:46;2.53;;;1.90;;
4963;SDS011;2497;47.410;9.740;2023-04-25T12:04:15;1.40;;;1.20;;
4963;SDS011;2497;47.410;9.740;2023-04-25T12:06:49;4.13;;;2.23;;
4963;SDS011;2497;47.410;9.740;2023-04-25T12:09:19;3.30;;;2.70;;
4963;SDS011;2497;47.410;9.740;2023-04-25T12:14:39;5.90;;;2.27;;
4963;SDS011;2497;47.410;9.740;2023-04-25T12:17:09;3.97;;;1.90;;
4963;SDS011;2497;47.410;9.740;2023-04-25T12:19:58;7.60;;;2.90;;
4963;SDS011;2497;47.410;9.740;2023-04-25T12:22:25;6.93;;;2.77;;
4963;SDS011;2497;47.410;9.740;2023-04-25T12:25:09;9.10;;;2.17;;
4963;SDS011;2497;47.410;9.740;2023-04-25T12:27:38;1.50;;;1.23;;
4963;SDS011;2497;47.410;9.740;2023-04-25T12:30:07;4.57;;;2.37;;
4963;SDS011;2497;47.410;9.740;2023-04-25T12:32:36;3.10;;;1.53;;
4963;SDS011;2497;47.410;9.740;2023-04-25T12:35:06;2.30;;;1.70;;
4963;SDS011;2497;47.410;9.740;2023-04-25T12:37:34;2.90;;;1.67;;
4963;SDS011;2497;47.410;9.740;2023-04-25T12:40:01;2.30;;;1.20;;
4963;SDS011;2497;47.410;9.740;2023-04-25T12:42:31;1.30;;;0.90;;
4963;SDS011;2497;47.410;9.740;2023-04-25T12:45:00;1.20;;;1.03;;
4963;SDS011;2497;47.410;9.740;2023-04-25T12:47:29;2.87;;;1.20;;
4963;SDS011;2497;47.410;9.740;2023-04-25T12:49:56;3.47;;;1.27;;
4963;SDS011;2497;47.410;9.740;2023-04-25T12:52:23;2.47;;;0.90;;
4963;SDS011;2497;47.410;9.740;2023-04-25T12:54:50;1.20;;;1.10;;
4963;SDS011;2497;47.410;9.740;2023-04-25T12:57:18;1.83;;;1.10;;
4963;SDS011;2497;47.410;9.740;2023-04-25T12:59:45;2.23;;;1.30;;
4963;SDS011;2497;47.410;9.740;2023-04-25T13:02:14;4.10;;;1.60;;
4963;SDS011;2497;47.410;9.740;2023-04-25T13:04:42;4.10;;;1.30;;
4963;SDS011;2497;47.410;9.740;2023-04-25T13:07:09;3.47;;;1.40;;
4963;SDS011;2497;47.410;9.740;2023-04-25T13:09:36;2.60;;;1.23;;
4963;SDS011;2497;47.410;9.740;2023-04-25T13:12:04;2.40;;;1.47;;
4963;SDS011;2497;47.410;9.740;2023-04-25T13:14:31;2.43;;;1.70;;
4963;SDS011;2497;47.410;9.740;2023-04-25T13:16:58;4.23;;;1.73;;
4963;SDS011;2497;47.410;9.740;2023-04-25T13:19:27;2.97;;;1.63;;
4963;SDS011;2497;47.410;9.740;2023-04-25T13:21:54;3.53;;;1.40;;
4963;SDS011;2497;47.410;9.740;2023-04-25T13:24:21;3.53;;;1.73;;
4963;SDS011;2497;47.410;9.740;2023-04-25T13:26:49;2.10;;;1.53;;
4963;SDS011;2497;47.410;9.740;2023-04-25T13:29:16;1.70;;;1.30;;
4963;SDS011;2497;47.410;9.740;2023-04-25T13:31:43;4.43;;;1.60;;
4963;SDS011;2497;47.410;9.740;2023-04-25T13:34:10;4.23;;;2.17;;
4963;SDS011;2497;47.410;9.740;2023-04-25T13:36:39;3.63;;;2.13;;
4963;SDS011;2497;47.410;9.740;2023-04-25T13:39:06;6.53;;;1.73;;
4963;SDS011;2497;47.410;9.740;2023-04-25T13:41:33;2.30;;;1.60;;
4963;SDS011;2497;47.410;9.740;2023-04-25T13:44:00;1.97;;;1.63;;
4963;SDS011;2497;47.410;9.740;2023-04-25T13:46:27;4.40;;;1.60;;
4963;SDS011;2497;47.410;9.740;2023-04-25T13:48:54;2.20;;;1.40;;
4963;SDS011;2497;47.410;9.740;2023-04-25T13:51:21;1.43;;;1.27;;
4963;SDS011;2497;47.410;9.740;2023-04-25T13:53:50;2.07;;;1.60;;
4963;SDS011;2497;47.410;9.740;2023-04-25T13:56:17;1.80;;;1.50;;
4963;SDS011;2497;47.410;9.740;2023-04-25T13:58:45;2.03;;;1.30;;
4963;SDS011;2497;47.410;9.740;2023-04-25T14:01:14;4.33;;;1.63;;
4963;SDS011;2497;47.410;9.740;2023-04-25T14:03:46;2.33;;;1.60;;
4963;SDS011;2497;47.410;9.740;2023-04-25T14:06:17;2.23;;;1.37;;
4963;SDS011;2497;47.410;9.740;2023-04-25T14:08:48;1.30;;;1.13;;
4963;SDS011;2497;47.410;9.740;2023-04-25T14:11:17;2.90;;;1.50;;
4963;SDS011;2497;47.410;9.740;2023-04-25T14:13:44;3.97;;;1.73;;
4963;SDS011;2497;47.410;9.740;2023-04-25T14:16:12;2.27;;;1.37;;
4963;SDS011;2497;47.410;9.740;2023-04-25T14:18:47;2.67;;;1.50;;
4963;SDS011;2497;47.410;9.740;2023-04-25T14:21:14;3.67;;;1.53;;
4963;SDS011;2497;47.410;9.740;2023-04-25T14:23:43;1.40;;;1.20;;
4963;SDS011;2497;47.410;9.740;2023-04-25T14:26:13;1.60;;;1.27;;
4963;SDS011;2497;47.410;9.740;2023-04-25T14:28:41;1.60;;;1.20;;
4963;SDS011;2497;47.410;9.740;2023-04-25T14:31:08;2.23;;;1.27;;
4963;SDS011;2497;47.410;9.740;2023-04-25T14:33:38;1.97;;;1.20;;
4963;SDS011;2497;47.410;9.740;2023-04-25T14:36:08;2.90;;;1.40;;
4963;SDS011;2497;47.410;9.740;2023-04-25T14:38:36;2.80;;;1.60;;
4963;SDS011;2497;47.410;9.740;2023-04-25T14:41:03;2.57;;;1.90;;
4963;SDS011;2497;47.410;9.740;2023-04-25T14:43:32;2.63;;;1.47;;
4963;SDS011;2497;47.410;9.740;2023-04-25T14:45:59;2.00;;;1.33;;
4963;SDS011;2497;47.410;9.740;2023-04-25T14:48:27;1.73;;;1.20;;
4963;SDS011;2497;47.410;9.740;2023-04-25T14:51:03;1.60;;;1.47;;
4963;SDS011;2497;47.410;9.740;2023-04-25T14:53:36;2.13;;;1.50;;
4963;SDS011;2497;47.410;9.740;2023-04-25T14:56:03;2.70;;;1.63;;
4963;SDS011;2497;47.410;9.740;2023-04-25T15:01:52;1.70;;;1.10;;
4963;SDS011;2497;47.410;9.740;2023-04-25T15:04:19;3.73;;;1.33;;
4963;SDS011;2497;47.410;9.740;2023-04-25T15:06:46;1.63;;;1.13;;
4963;SDS011;2497;47.410;9.740;2023-04-25T15:09:14;1.30;;;1.20;;
4963;SDS011;2497;47.410;9.740;2023-04-25T15:11:43;1.30;;;1.00;;
4963;SDS011;2497;47.410;9.740;2023-04-25T15:14:10;1.67;;;1.20;;
4963;SDS011;2497;47.410;9.740;2023-04-25T15:16:37;1.90;;;1.10;;
4963;SDS011;2497;47.410;9.740;2023-04-25T15:19:06;1.87;;;1.00;;
4963;SDS011;2497;47.410;9.740;2023-04-25T15:21:34;1.80;;;1.00;;
4963;SDS011;2497;47.410;9.740;2023-04-25T15:24:02;1.27;;;1.00;;
4963;SDS011;2497;47.410;9.740;2023-04-25T15:26:30;3.83;;;1.90;;
4963;SDS011;2497;47.410;9.740;2023-04-25T15:28:59;1.17;;;1.00;;
4963;SDS011;2497;47.410;9.740;2023-04-25T15:31:26;1.83;;;0.97;;
4963;SDS011;2497;47.410;9.740;2023-04-25T15:33:55;1.47;;;1.20;;
4963;SDS011;2497;47.410;9.740;2023-04-25T15:36:24;1.63;;;1.07;;